sensor_id;sensor_type;location;lat;lon;timestamp;P1;durP1;ratioP1;P2;durP2;ratioP2
33098;SDS011;19465;49.016;11.414;2024-03-25T00:01:34;6.07;;;3.20;;
33098;SDS011;19465;49.016;11.414;2024-03-25T00:04:00;10.40;;;3.40;;
33098;SDS011;19465;49.016;11.414;2024-03-25T00:06:25;7.47;;;3.35;;
33098;SDS011;19465;49.016;11.414;2024-03-25T00:08:51;7.38;;;3.33;;
33098;SDS011;19465;49.016;11.414;2024-03-25T00:11:17;5.43;;;3.35;;
33098;SDS011;19465;49.016;11.414;2024-03-25T00:13:42;8.05;;;3.38;;
33098;SDS011;19465;49.016;11.414;2024-03-25T00:16:08;6.63;;;3.33;;
33098;SDS011;19465;49.016;11.414;2024-03-25T00:18:33;8.25;;;3.78;;
33098;SDS011;19465;49.016;11.414;2024-03-25T00:20:59;6.28;;;3.33;;
33098;SDS011;19465;49.016;11.414;2024-03-25T00:23:24;5.63;;;3.47;;
33098;SDS011;19465;49.016;11.414;2024-03-25T00:25:50;7.28;;;3.50;;
33098;SDS011;19465;49.016;11.414;2024-03-25T00:28:16;7.30;;;3.80;;
33098;SDS011;19465;49.016;11.414;2024-03-25T00:30:42;5.75;;;3.60;;
33098;SDS011;19465;49.016;11.414;2024-03-25T00:33:07;5.63;;;3.80;;
33098;SDS011;19465;49.016;11.414;2024-03-25T00:35:33;5.13;;;3.50;;
33098;SDS011;19465;49.016;11.414;2024-03-25T00:37:59;6.65;;;3.65;;
33098;SDS011;19465;49.016;11.414;2024-03-25T00:40:25;7.25;;;4.35;;
33098;SDS011;19465;49.016;11.414;2024-03-25T00:42:51;8.77;;;4.45;;
33098;SDS011;19465;49.016;11.414;2024-03-25T00:45:17;5.68;;;3.90;;
33098;SDS011;19465;49.016;11.414;2024-03-25T00:47:42;7.05;;;4.03;;
33098;SDS011;19465;49.016;11.414;2024-03-25T00:50:08;8.75;;;4.57;;
33098;SDS011;19465;49.016;11.414;2024-03-25T00:52:34;9.50;;;3.80;;
33098;SDS011;19465;49.016;11.414;2024-03-25T00:55:00;5.40;;;3.90;;
33098;SDS011;19465;49.016;11.414;2024-03-25T00:57:26;9.80;;;4.30;;
33098;SDS011;19465;49.016;11.414;2024-03-25T00:59:52;5.82;;;4.25;;
33098;SDS011;19465;49.016;11.414;2024-03-25T01:02:17;6.28;;;4.07;;
33098;SDS011;19465;49.016;11.414;2024-03-25T01:04:43;5.70;;;3.60;;
33098;SDS011;19465;49.016;11.414;2024-03-25T01:07:08;8.40;;;4.30;;
33098;SDS011;19465;49.016;11.414;2024-03-25T01:09:34;5.20;;;3.97;;
33098;SDS011;19465;49.016;11.414;2024-03-25T01:12:00;6.65;;;4.10;;
33098;SDS011;19465;49.016;11.414;2024-03-25T01:14:25;9.63;;;3.78;;
33098;SDS011;19465;49.016;11.414;2024-03-25T01:16:51;7.85;;;4.15;;
33098;SDS011;19465;49.016;11.414;2024-03-25T01:19:17;5.60;;;3.90;;
33098;SDS011;19465;49.016;11.414;2024-03-25T01:21:43;5.03;;;3.65;;
33098;SDS011;19465;49.016;11.414;2024-03-25T01:24:09;7.55;;;4.10;;
33098;SDS011;19465;49.016;11.414;2024-03-25T01:26:34;5.72;;;3.80;;
33098;SDS011;19465;49.016;11.414;2024-03-25T01:29:00;8.48;;;4.03;;
33098;SDS011;19465;49.016;11.414;2024-03-25T01:31:26;6.78;;;3.63;;
33098;SDS011;19465;49.016;11.414;2024-03-25T01:33:52;6.97;;;4.07;;
33098;SDS011;19465;49.016;11.414;2024-03-25T01:36:17;6.22;;;4.20;;
33098;SDS011;19465;49.016;11.414;2024-03-25T01:38:44;4.80;;;3.60;;
33098;SDS011;19465;49.016;11.414;2024-03-25T01:41:10;8.70;;;4.10;;
33098;SDS011;19465;49.016;11.414;2024-03-25T01:43:36;7.05;;;4.35;;
33098;SDS011;19465;49.016;11.414;2024-03-25T01:46:04;7.68;;;3.90;;
33098;SDS011;19465;49.016;11.414;2024-03-25T01:48:30;8.15;;;4.25;;
33098;SDS011;19465;49.016;11.414;2024-03-25T01:50:56;8.05;;;5.05;;
33098;SDS011;19465;49.016;11.414;2024-03-25T01:53:25;8.65;;;4.28;;
33098;SDS011;19465;49.016;11.414;2024-03-25T01:55:53;8.18;;;4.47;;
33098;SDS011;19465;49.016;11.414;2024-03-25T01:58:21;7.25;;;3.97;;
33098;SDS011;19465;49.016;11.414;2024-03-25T02:00:47;8.55;;;4.38;;
33098;SDS011;19465;49.016;11.414;2024-03-25T02:03:13;7.70;;;4.75;;
33098;SDS011;19465;49.016;11.414;2024-03-25T02:05:42;7.55;;;4.35;;
33098;SDS011;19465;49.016;11.414;2024-03-25T02:08:09;6.13;;;3.88;;
33098;SDS011;19465;49.016;11.414;2024-03-25T02:10:35;8.18;;;4.35;;
33098;SDS011;19465;49.016;11.414;2024-03-25T02:13:01;6.78;;;4.20;;
33098;SDS011;19465;49.016;11.414;2024-03-25T02:15:27;7.38;;;4.30;;
33098;SDS011;19465;49.016;11.414;2024-03-25T02:17:54;8.27;;;3.80;;
33098;SDS011;19465;49.016;11.414;2024-03-25T02:20:20;8.75;;;4.00;;
33098;SDS011;19465;49.016;11.414;2024-03-25T02:22:45;7.57;;;4.15;;
33098;SDS011;19465;49.016;11.414;2024-03-25T02:25:11;7.50;;;3.95;;
33098;SDS011;19465;49.016;11.414;2024-03-25T02:27:39;6.60;;;4.18;;
33098;SDS011;19465;49.016;11.414;2024-03-25T02:30:06;6.53;;;4.45;;
33098;SDS011;19465;49.016;11.414;2024-03-25T02:32:36;8.15;;;4.07;;
33098;SDS011;19465;49.016;11.414;2024-03-25T02:35:02;9.40;;;4.43;;
33098;SDS011;19465;49.016;11.414;2024-03-25T02:37:29;6.55;;;4.13;;
33098;SDS011;19465;49.016;11.414;2024-03-25T02:39:58;7.40;;;4.45;;
33098;SDS011;19465;49.016;11.414;2024-03-25T02:42:27;6.45;;;4.30;;
33098;SDS011;19465;49.016;11.414;2024-03-25T02:44:57;7.50;;;4.45;;
33098;SDS011;19465;49.016;11.414;2024-03-25T02:47:23;8.50;;;4.43;;
33098;SDS011;19465;49.016;11.414;2024-03-25T02:49:49;9.25;;;4.70;;
33098;SDS011;19465;49.016;11.414;2024-03-25T02:52:15;7.43;;;4.25;;
33098;SDS011;19465;49.016;11.414;2024-03-25T02:54:41;5.70;;;3.80;;
33098;SDS011;19465;49.016;11.414;2024-03-25T02:57:07;9.73;;;4.70;;
33098;SDS011;19465;49.016;11.414;2024-03-25T02:59:33;9.00;;;5.18;;
33098;SDS011;19465;49.016;11.414;2024-03-25T03:01:58;7.95;;;4.38;;
33098;SDS011;19465;49.016;11.414;2024-03-25T03:04:24;6.22;;;4.00;;
33098;SDS011;19465;49.016;11.414;2024-03-25T03:06:50;6.82;;;4.43;;
33098;SDS011;19465;49.016;11.414;2024-03-25T03:09:16;11.98;;;5.07;;
33098;SDS011;19465;49.016;11.414;2024-03-25T03:11:42;8.77;;;4.80;;
33098;SDS011;19465;49.016;11.414;2024-03-25T03:14:08;10.75;;;5.32;;
33098;SDS011;19465;49.016;11.414;2024-03-25T03:16:34;7.28;;;4.30;;
33098;SDS011;19465;49.016;11.414;2024-03-25T03:19:00;10.43;;;4.93;;
33098;SDS011;19465;49.016;11.414;2024-03-25T03:21:27;10.00;;;5.13;;
33098;SDS011;19465;49.016;11.414;2024-03-25T03:23:54;8.35;;;4.90;;
33098;SDS011;19465;49.016;11.414;2024-03-25T03:26:20;8.02;;;4.72;;
33098;SDS011;19465;49.016;11.414;2024-03-25T03:28:51;7.60;;;4.88;;
33098;SDS011;19465;49.016;11.414;2024-03-25T03:31:17;8.00;;;4.60;;
33098;SDS011;19465;49.016;11.414;2024-03-25T03:33:43;8.57;;;4.72;;
33098;SDS011;19465;49.016;11.414;2024-03-25T03:36:09;10.52;;;4.95;;
33098;SDS011;19465;49.016;11.414;2024-03-25T03:38:35;9.50;;;5.03;;
33098;SDS011;19465;49.016;11.414;2024-03-25T03:41:02;8.90;;;5.00;;
33098;SDS011;19465;49.016;11.414;2024-03-25T03:43:31;11.07;;;5.90;;
33098;SDS011;19465;49.016;11.414;2024-03-25T03:45:57;8.73;;;4.90;;
33098;SDS011;19465;49.016;11.414;2024-03-25T03:48:23;8.13;;;5.07;;
33098;SDS011;19465;49.016;11.414;2024-03-25T03:50:49;10.18;;;4.85;;
33098;SDS011;19465;49.016;11.414;2024-03-25T03:53:15;8.48;;;5.35;;
33098;SDS011;19465;49.016;11.414;2024-03-25T03:55:41;12.23;;;5.05;;
33098;SDS011;19465;49.016;11.414;2024-03-25T03:58:07;8.50;;;5.25;;
33098;SDS011;19465;49.016;11.414;2024-03-25T04:00:33;6.32;;;4.63;;
33098;SDS011;19465;49.016;11.414;2024-03-25T04:03:00;9.45;;;5.32;;
33098;SDS011;19465;49.016;11.414;2024-03-25T04:05:29;7.88;;;4.93;;
33098;SDS011;19465;49.016;11.414;2024-03-25T04:07:55;10.93;;;5.35;;
33098;SDS011;19465;49.016;11.414;2024-03-25T04:10:22;10.38;;;5.90;;
33098;SDS011;19465;49.016;11.414;2024-03-25T04:12:47;11.18;;;5.47;;
33098;SDS011;19465;49.016;11.414;2024-03-25T04:15:13;9.35;;;5.25;;
33098;SDS011;19465;49.016;11.414;2024-03-25T04:17:43;10.20;;;5.38;;
33098;SDS011;19465;49.016;11.414;2024-03-25T04:20:10;10.00;;;5.07;;
33098;SDS011;19465;49.016;11.414;2024-03-25T04:22:36;9.50;;;5.45;;
33098;SDS011;19465;49.016;11.414;2024-03-25T04:25:02;8.40;;;5.30;;
33098;SDS011;19465;49.016;11.414;2024-03-25T04:27:28;8.68;;;5.07;;
33098;SDS011;19465;49.016;11.414;2024-03-25T04:29:54;8.48;;;5.03;;
33098;SDS011;19465;49.016;11.414;2024-03-25T04:32:20;10.48;;;5.28;;
33098;SDS011;19465;49.016;11.414;2024-03-25T04:34:46;9.77;;;4.93;;
33098;SDS011;19465;49.016;11.414;2024-03-25T04:37:12;8.77;;;4.93;;
33098;SDS011;19465;49.016;11.414;2024-03-25T04:39:39;8.40;;;5.20;;
33098;SDS011;19465;49.016;11.414;2024-03-25T04:42:05;9.13;;;5.15;;
33098;SDS011;19465;49.016;11.414;2024-03-25T04:44:31;9.57;;;5.47;;
33098;SDS011;19465;49.016;11.414;2024-03-25T04:46:57;10.30;;;5.60;;
33098;SDS011;19465;49.016;11.414;2024-03-25T04:49:23;10.05;;;5.25;;
33098;SDS011;19465;49.016;11.414;2024-03-25T04:51:52;8.15;;;5.30;;
33098;SDS011;19465;49.016;11.414;2024-03-25T04:54:18;10.20;;;5.68;;
33098;SDS011;19465;49.016;11.414;2024-03-25T04:56:44;8.05;;;5.25;;
33098;SDS011;19465;49.016;11.414;2024-03-25T04:59:10;8.75;;;5.28;;
33098;SDS011;19465;49.016;11.414;2024-03-25T05:01:36;9.60;;;5.18;;
33098;SDS011;19465;49.016;11.414;2024-03-25T05:04:02;6.75;;;5.07;;
33098;SDS011;19465;49.016;11.414;2024-03-25T05:06:28;13.25;;;5.65;;
33098;SDS011;19465;49.016;11.414;2024-03-25T05:08:54;12.50;;;4.97;;
33098;SDS011;19465;49.016;11.414;2024-03-25T05:11:20;12.73;;;5.70;;
33098;SDS011;19465;49.016;11.414;2024-03-25T05:13:46;8.57;;;5.00;;
33098;SDS011;19465;49.016;11.414;2024-03-25T05:16:12;9.30;;;5.55;;
33098;SDS011;19465;49.016;11.414;2024-03-25T05:18:37;8.13;;;5.05;;
33098;SDS011;19465;49.016;11.414;2024-03-25T05:21:03;9.18;;;5.47;;
33098;SDS011;19465;49.016;11.414;2024-03-25T05:23:29;11.65;;;6.30;;
33098;SDS011;19465;49.016;11.414;2024-03-25T05:25:55;11.57;;;5.00;;
33098;SDS011;19465;49.016;11.414;2024-03-25T05:28:21;8.85;;;4.97;;
33098;SDS011;19465;49.016;11.414;2024-03-25T05:30:47;9.90;;;5.05;;
33098;SDS011;19465;49.016;11.414;2024-03-25T05:33:14;10.57;;;5.47;;
33098;SDS011;19465;49.016;11.414;2024-03-25T05:35:41;11.90;;;5.32;;
33098;SDS011;19465;49.016;11.414;2024-03-25T05:38:07;8.27;;;4.60;;
33098;SDS011;19465;49.016;11.414;2024-03-25T05:40:32;8.48;;;4.72;;
33098;SDS011;19465;49.016;11.414;2024-03-25T05:42:59;12.35;;;5.50;;
33098;SDS011;19465;49.016;11.414;2024-03-25T05:45:25;10.45;;;5.00;;
33098;SDS011;19465;49.016;11.414;2024-03-25T05:47:51;8.73;;;5.18;;
33098;SDS011;19465;49.016;11.414;2024-03-25T05:50:17;7.00;;;4.70;;
33098;SDS011;19465;49.016;11.414;2024-03-25T05:52:42;10.35;;;5.03;;
33098;SDS011;19465;49.016;11.414;2024-03-25T05:55:08;7.63;;;4.70;;
33098;SDS011;19465;49.016;11.414;2024-03-25T05:57:37;7.95;;;4.50;;
33098;SDS011;19465;49.016;11.414;2024-03-25T06:00:03;10.02;;;4.82;;
33098;SDS011;19465;49.016;11.414;2024-03-25T06:02:29;6.53;;;4.38;;
33098;SDS011;19465;49.016;11.414;2024-03-25T06:04:55;7.90;;;4.45;;
33098;SDS011;19465;49.016;11.414;2024-03-25T06:07:24;8.77;;;5.25;;
33098;SDS011;19465;49.016;11.414;2024-03-25T06:09:52;6.93;;;4.57;;
33098;SDS011;19465;49.016;11.414;2024-03-25T06:12:18;9.45;;;5.10;;
33098;SDS011;19465;49.016;11.414;2024-03-25T06:14:44;9.35;;;5.43;;
33098;SDS011;19465;49.016;11.414;2024-03-25T06:17:21;9.75;;;4.45;;
33098;SDS011;19465;49.016;11.414;2024-03-25T06:19:54;9.63;;;4.72;;
33098;SDS011;19465;49.016;11.414;2024-03-25T06:22:22;9.25;;;5.03;;
33098;SDS011;19465;49.016;11.414;2024-03-25T06:24:48;10.82;;;5.88;;
33098;SDS011;19465;49.016;11.414;2024-03-25T06:27:15;7.68;;;4.75;;
33098;SDS011;19465;49.016;11.414;2024-03-25T06:29:41;7.32;;;4.30;;
33098;SDS011;19465;49.016;11.414;2024-03-25T06:32:08;11.27;;;4.80;;
33098;SDS011;19465;49.016;11.414;2024-03-25T06:34:56;10.05;;;4.82;;
33098;SDS011;19465;49.016;11.414;2024-03-25T06:37:26;9.18;;;4.55;;
33098;SDS011;19465;49.016;11.414;2024-03-25T06:39:57;7.65;;;4.20;;
33098;SDS011;19465;49.016;11.414;2024-03-25T06:42:23;9.23;;;4.60;;
33098;SDS011;19465;49.016;11.414;2024-03-25T06:44:50;8.13;;;5.75;;
33098;SDS011;19465;49.016;11.414;2024-03-25T06:47:15;10.07;;;4.82;;
33098;SDS011;19465;49.016;11.414;2024-03-25T06:49:40;9.05;;;3.95;;
33098;SDS011;19465;49.016;11.414;2024-03-25T06:52:07;9.90;;;4.07;;
33098;SDS011;19465;49.016;11.414;2024-03-25T06:54:32;9.52;;;3.95;;
33098;SDS011;19465;49.016;11.414;2024-03-25T06:56:58;6.57;;;3.72;;
33098;SDS011;19465;49.016;11.414;2024-03-25T06:59:23;5.75;;;3.83;;
33098;SDS011;19465;49.016;11.414;2024-03-25T07:01:49;6.93;;;3.45;;
33098;SDS011;19465;49.016;11.414;2024-03-25T07:04:14;5.63;;;3.30;;
33098;SDS011;19465;49.016;11.414;2024-03-25T07:06:40;5.75;;;3.20;;
33098;SDS011;19465;49.016;11.414;2024-03-25T07:09:05;5.30;;;3.70;;
33098;SDS011;19465;49.016;11.414;2024-03-25T07:11:31;6.88;;;3.90;;
33098;SDS011;19465;49.016;11.414;2024-03-25T07:13:56;11.88;;;4.90;;
33098;SDS011;19465;49.016;11.414;2024-03-25T07:16:22;8.82;;;4.97;;
33098;SDS011;19465;49.016;11.414;2024-03-25T07:18:47;6.93;;;4.22;;
33098;SDS011;19465;49.016;11.414;2024-03-25T07:21:13;7.60;;;4.18;;
33098;SDS011;19465;49.016;11.414;2024-03-25T07:23:39;6.47;;;3.72;;
33098;SDS011;19465;49.016;11.414;2024-03-25T07:26:05;6.22;;;3.33;;
33098;SDS011;19465;49.016;11.414;2024-03-25T07:28:30;4.03;;;2.92;;
33098;SDS011;19465;49.016;11.414;2024-03-25T07:30:56;4.07;;;2.50;;
33098;SDS011;19465;49.016;11.414;2024-03-25T07:33:21;5.38;;;2.78;;
33098;SDS011;19465;49.016;11.414;2024-03-25T07:35:47;6.57;;;2.50;;
33098;SDS011;19465;49.016;11.414;2024-03-25T07:38:12;5.25;;;2.22;;
33098;SDS011;19465;49.016;11.414;2024-03-25T07:40:38;3.42;;;2.00;;
33098;SDS011;19465;49.016;11.414;2024-03-25T07:43:03;4.72;;;2.25;;
33098;SDS011;19465;49.016;11.414;2024-03-25T07:45:30;4.97;;;2.20;;
33098;SDS011;19465;49.016;11.414;2024-03-25T07:47:56;3.90;;;1.77;;
33098;SDS011;19465;49.016;11.414;2024-03-25T07:50:21;13.55;;;5.07;;
33098;SDS011;19465;49.016;11.414;2024-03-25T07:52:47;12.55;;;5.78;;
33098;SDS011;19465;49.016;11.414;2024-03-25T07:55:13;6.00;;;1.88;;
33098;SDS011;19465;49.016;11.414;2024-03-25T07:57:40;5.53;;;2.20;;
33098;SDS011;19465;49.016;11.414;2024-03-25T08:00:05;6.00;;;2.30;;
33098;SDS011;19465;49.016;11.414;2024-03-25T08:02:33;5.10;;;2.00;;
33098;SDS011;19465;49.016;11.414;2024-03-25T08:04:59;5.43;;;2.63;;
33098;SDS011;19465;49.016;11.414;2024-03-25T08:07:24;5.55;;;2.22;;
33098;SDS011;19465;49.016;11.414;2024-03-25T08:09:50;3.80;;;1.95;;
33098;SDS011;19465;49.016;11.414;2024-03-25T08:12:15;4.97;;;2.00;;
33098;SDS011;19465;49.016;11.414;2024-03-25T08:14:41;4.63;;;2.25;;
33098;SDS011;19465;49.016;11.414;2024-03-25T08:17:08;3.42;;;1.70;;
33098;SDS011;19465;49.016;11.414;2024-03-25T08:19:34;4.13;;;1.60;;
33098;SDS011;19465;49.016;11.414;2024-03-25T08:22:00;4.55;;;2.22;;
33098;SDS011;19465;49.016;11.414;2024-03-25T08:24:26;3.95;;;2.00;;
33098;SDS011;19465;49.016;11.414;2024-03-25T08:26:51;4.68;;;2.20;;
33098;SDS011;19465;49.016;11.414;2024-03-25T08:29:17;4.43;;;2.47;;
33098;SDS011;19465;49.016;11.414;2024-03-25T08:31:43;4.40;;;2.83;;
33098;SDS011;19465;49.016;11.414;2024-03-25T08:34:08;7.95;;;3.50;;
33098;SDS011;19465;49.016;11.414;2024-03-25T08:36:34;5.38;;;2.88;;
33098;SDS011;19465;49.016;11.414;2024-03-25T08:38:59;7.38;;;4.10;;
33098;SDS011;19465;49.016;11.414;2024-03-25T08:41:25;4.28;;;2.35;;
33098;SDS011;19465;49.016;11.414;2024-03-25T08:43:50;4.55;;;2.53;;
33098;SDS011;19465;49.016;11.414;2024-03-25T08:46:16;6.43;;;2.67;;
33098;SDS011;19465;49.016;11.414;2024-03-25T08:48:41;4.50;;;2.63;;
33098;SDS011;19465;49.016;11.414;2024-03-25T08:51:07;4.15;;;2.17;;
33098;SDS011;19465;49.016;11.414;2024-03-25T08:53:33;3.40;;;2.10;;
33098;SDS011;19465;49.016;11.414;2024-03-25T08:55:58;4.13;;;2.47;;
33098;SDS011;19465;49.016;11.414;2024-03-25T08:58:24;4.43;;;2.10;;
33098;SDS011;19465;49.016;11.414;2024-03-25T09:00:50;4.93;;;2.03;;
33098;SDS011;19465;49.016;11.414;2024-03-25T09:03:16;6.97;;;2.80;;
33098;SDS011;19465;49.016;11.414;2024-03-25T09:05:42;4.78;;;2.10;;
33098;SDS011;19465;49.016;11.414;2024-03-25T09:08:07;4.07;;;2.30;;
33098;SDS011;19465;49.016;11.414;2024-03-25T09:10:36;6.57;;;2.47;;
33098;SDS011;19465;49.016;11.414;2024-03-25T09:13:20;3.30;;;2.00;;
33098;SDS011;19465;49.016;11.414;2024-03-25T09:15:48;3.85;;;2.00;;
33098;SDS011;19465;49.016;11.414;2024-03-25T09:18:13;7.32;;;2.60;;
33098;SDS011;19465;49.016;11.414;2024-03-25T09:20:39;4.07;;;2.10;;
33098;SDS011;19465;49.016;11.414;2024-03-25T09:23:04;6.15;;;2.72;;
33098;SDS011;19465;49.016;11.414;2024-03-25T09:25:30;4.88;;;2.65;;
33098;SDS011;19465;49.016;11.414;2024-03-25T09:27:56;5.25;;;2.33;;
33098;SDS011;19465;49.016;11.414;2024-03-25T09:30:21;4.60;;;2.30;;
33098;SDS011;19465;49.016;11.414;2024-03-25T09:32:47;4.90;;;2.17;;
33098;SDS011;19465;49.016;11.414;2024-03-25T09:35:12;4.25;;;2.13;;
33098;SDS011;19465;49.016;11.414;2024-03-25T09:37:38;4.72;;;2.38;;
33098;SDS011;19465;49.016;11.414;2024-03-25T09:40:04;5.95;;;2.20;;
33098;SDS011;19465;49.016;11.414;2024-03-25T09:42:34;4.82;;;2.20;;
33098;SDS011;19465;49.016;11.414;2024-03-25T09:45:22;4.60;;;1.95;;
33098;SDS011;19465;49.016;11.414;2024-03-25T09:47:50;4.30;;;2.00;;
33098;SDS011;19465;49.016;11.414;2024-03-25T09:50:16;2.38;;;1.90;;
33098;SDS011;19465;49.016;11.414;2024-03-25T09:52:44;3.42;;;1.75;;
33098;SDS011;19465;49.016;11.414;2024-03-25T09:55:10;2.47;;;1.70;;
33098;SDS011;19465;49.016;11.414;2024-03-25T09:57:36;3.80;;;1.80;;
33098;SDS011;19465;49.016;11.414;2024-03-25T10:00:03;2.13;;;1.55;;
33098;SDS011;19465;49.016;11.414;2024-03-25T10:02:31;3.38;;;1.60;;
33098;SDS011;19465;49.016;11.414;2024-03-25T10:04:59;2.47;;;1.73;;
33098;SDS011;19465;49.016;11.414;2024-03-25T10:07:24;3.97;;;1.70;;
33098;SDS011;19465;49.016;11.414;2024-03-25T10:09:50;3.85;;;1.90;;
33098;SDS011;19465;49.016;11.414;2024-03-25T10:12:16;3.78;;;1.77;;
33098;SDS011;19465;49.016;11.414;2024-03-25T10:14:42;3.15;;;1.60;;
33098;SDS011;19465;49.016;11.414;2024-03-25T10:17:08;4.43;;;1.92;;
33098;SDS011;19465;49.016;11.414;2024-03-25T10:19:34;1.75;;;1.50;;
33098;SDS011;19465;49.016;11.414;2024-03-25T10:22:04;3.30;;;1.92;;
33098;SDS011;19465;49.016;11.414;2024-03-25T10:24:37;3.38;;;1.65;;
33098;SDS011;19465;49.016;11.414;2024-03-25T10:27:06;4.32;;;1.40;;
33098;SDS011;19465;49.016;11.414;2024-03-25T10:29:36;2.92;;;1.50;;
33098;SDS011;19465;49.016;11.414;2024-03-25T10:32:02;3.20;;;1.45;;
33098;SDS011;19465;49.016;11.414;2024-03-25T10:34:29;4.32;;;1.60;;
33098;SDS011;19465;49.016;11.414;2024-03-25T10:36:56;2.85;;;1.60;;
33098;SDS011;19465;49.016;11.414;2024-03-25T10:39:25;3.25;;;1.83;;
33098;SDS011;19465;49.016;11.414;2024-03-25T10:41:52;2.10;;;1.38;;
33098;SDS011;19465;49.016;11.414;2024-03-25T10:44:22;2.40;;;1.30;;
33098;SDS011;19465;49.016;11.414;2024-03-25T10:46:55;3.13;;;1.50;;
33098;SDS011;19465;49.016;11.414;2024-03-25T10:52:15;2.42;;;1.48;;
33098;SDS011;19465;49.016;11.414;2024-03-25T10:54:42;2.00;;;1.48;;
33098;SDS011;19465;49.016;11.414;2024-03-25T10:57:11;2.65;;;1.17;;
33098;SDS011;19465;49.016;11.414;2024-03-25T10:59:38;2.10;;;1.38;;
33098;SDS011;19465;49.016;11.414;2024-03-25T11:02:06;3.22;;;1.45;;
33098;SDS011;19465;49.016;11.414;2024-03-25T11:04:32;3.40;;;1.50;;
33098;SDS011;19465;49.016;11.414;2024-03-25T11:09:38;2.00;;;1.50;;
33098;SDS011;19465;49.016;11.414;2024-03-25T11:12:04;2.22;;;1.55;;
33098;SDS011;19465;49.016;11.414;2024-03-25T11:14:30;3.55;;;1.60;;
33098;SDS011;19465;49.016;11.414;2024-03-25T11:17:00;3.17;;;1.73;;
33098;SDS011;19465;49.016;11.414;2024-03-25T11:19:26;2.42;;;1.60;;
33098;SDS011;19465;49.016;11.414;2024-03-25T11:21:53;2.53;;;1.52;;
33098;SDS011;19465;49.016;11.414;2024-03-25T11:24:29;2.65;;;1.45;;
33098;SDS011;19465;49.016;11.414;2024-03-25T11:26:55;2.28;;;1.60;;
33098;SDS011;19465;49.016;11.414;2024-03-25T11:29:21;2.65;;;1.60;;
33098;SDS011;19465;49.016;11.414;2024-03-25T11:31:48;2.33;;;1.45;;
33098;SDS011;19465;49.016;11.414;2024-03-25T11:34:15;2.63;;;1.73;;
33098;SDS011;19465;49.016;11.414;2024-03-25T11:36:40;2.95;;;1.77;;
33098;SDS011;19465;49.016;11.414;2024-03-25T11:39:06;3.55;;;1.70;;
33098;SDS011;19465;49.016;11.414;2024-03-25T11:41:41;3.45;;;1.50;;
33098;SDS011;19465;49.016;11.414;2024-03-25T11:44:11;2.60;;;1.63;;
33098;SDS011;19465;49.016;11.414;2024-03-25T11:46:38;3.33;;;2.60;;
33098;SDS011;19465;49.016;11.414;2024-03-25T11:49:05;2.67;;;1.90;;
33098;SDS011;19465;49.016;11.414;2024-03-25T11:51:40;3.63;;;2.00;;
33098;SDS011;19465;49.016;11.414;2024-03-25T11:54:10;3.83;;;2.28;;
33098;SDS011;19465;49.016;11.414;2024-03-25T11:56:36;3.60;;;1.80;;
33098;SDS011;19465;49.016;11.414;2024-03-25T11:59:04;3.92;;;2.05;;
33098;SDS011;19465;49.016;11.414;2024-03-25T12:01:31;4.57;;;2.10;;
33098;SDS011;19465;49.016;11.414;2024-03-25T12:03:57;3.90;;;2.50;;
33098;SDS011;19465;49.016;11.414;2024-03-25T12:06:22;5.13;;;2.85;;
33098;SDS011;19465;49.016;11.414;2024-03-25T12:08:48;6.15;;;3.40;;
33098;SDS011;19465;49.016;11.414;2024-03-25T12:11:33;3.33;;;2.22;;
33098;SDS011;19465;49.016;11.414;2024-03-25T12:13:59;3.08;;;2.35;;
33098;SDS011;19465;49.016;11.414;2024-03-25T12:16:25;4.93;;;2.88;;
33098;SDS011;19465;49.016;11.414;2024-03-25T12:18:51;3.67;;;2.28;;
33098;SDS011;19465;49.016;11.414;2024-03-25T12:21:19;3.95;;;2.25;;
33098;SDS011;19465;49.016;11.414;2024-03-25T12:23:46;4.82;;;2.10;;
33098;SDS011;19465;49.016;11.414;2024-03-25T12:26:12;2.10;;;1.90;;
33098;SDS011;19465;49.016;11.414;2024-03-25T12:28:39;5.15;;;4.63;;
33098;SDS011;19465;49.016;11.414;2024-03-25T12:31:08;5.18;;;2.05;;
33098;SDS011;19465;49.016;11.414;2024-03-25T12:33:43;3.22;;;1.60;;
33098;SDS011;19465;49.016;11.414;2024-03-25T12:36:11;3.95;;;1.63;;
33098;SDS011;19465;49.016;11.414;2024-03-25T12:38:37;1.23;;;1.10;;
33098;SDS011;19465;49.016;11.414;2024-03-25T12:41:07;2.67;;;1.67;;
33098;SDS011;19465;49.016;11.414;2024-03-25T12:43:34;2.08;;;1.30;;
33098;SDS011;19465;49.016;11.414;2024-03-25T12:46:01;2.85;;;2.65;;
33098;SDS011;19465;49.016;11.414;2024-03-25T12:48:28;1.80;;;1.25;;
33098;SDS011;19465;49.016;11.414;2024-03-25T12:50:54;1.90;;;1.48;;
33098;SDS011;19465;49.016;11.414;2024-03-25T12:53:20;4.20;;;1.98;;
33098;SDS011;19465;49.016;11.414;2024-03-25T12:55:46;2.58;;;1.23;;
33098;SDS011;19465;49.016;11.414;2024-03-25T12:58:11;2.58;;;1.40;;
33098;SDS011;19465;49.016;11.414;2024-03-25T13:00:37;1.70;;;1.50;;
33098;SDS011;19465;49.016;11.414;2024-03-25T13:03:04;3.45;;;1.60;;
33098;SDS011;19465;49.016;11.414;2024-03-25T13:05:31;2.67;;;1.42;;
33098;SDS011;19465;49.016;11.414;2024-03-25T13:07:57;2.88;;;1.60;;
33098;SDS011;19465;49.016;11.414;2024-03-25T13:10:22;2.00;;;1.80;;
33098;SDS011;19465;49.016;11.414;2024-03-25T13:12:48;2.42;;;1.40;;
33098;SDS011;19465;49.016;11.414;2024-03-25T13:15:13;1.60;;;1.40;;
33098;SDS011;19465;49.016;11.414;2024-03-25T13:17:39;2.70;;;1.70;;
33098;SDS011;19465;49.016;11.414;2024-03-25T13:20:05;1.65;;;1.13;;
33098;SDS011;19465;49.016;11.414;2024-03-25T13:22:30;2.63;;;1.50;;
33098;SDS011;19465;49.016;11.414;2024-03-25T13:24:57;2.13;;;1.38;;
33098;SDS011;19465;49.016;11.414;2024-03-25T13:27:23;2.13;;;1.27;;
33098;SDS011;19465;49.016;11.414;2024-03-25T13:29:50;2.13;;;1.38;;
33098;SDS011;19465;49.016;11.414;2024-03-25T13:32:17;1.75;;;1.20;;
33098;SDS011;19465;49.016;11.414;2024-03-25T13:34:42;3.55;;;1.23;;
33098;SDS011;19465;49.016;11.414;2024-03-25T13:37:08;2.90;;;1.60;;
33098;SDS011;19465;49.016;11.414;2024-03-25T13:39:33;2.70;;;1.27;;
33098;SDS011;19465;49.016;11.414;2024-03-25T13:41:59;1.98;;;1.23;;
33098;SDS011;19465;49.016;11.414;2024-03-25T13:44:24;2.42;;;1.20;;
33098;SDS011;19465;49.016;11.414;2024-03-25T13:46:50;1.92;;;1.20;;
33098;SDS011;19465;49.016;11.414;2024-03-25T13:49:15;3.75;;;1.10;;
33098;SDS011;19465;49.016;11.414;2024-03-25T13:51:43;2.72;;;1.20;;
33098;SDS011;19465;49.016;11.414;2024-03-25T13:54:09;3.92;;;1.38;;
33098;SDS011;19465;49.016;11.414;2024-03-25T13:56:34;2.42;;;1.50;;
33098;SDS011;19465;49.016;11.414;2024-03-25T13:58:59;2.25;;;1.30;;
33098;SDS011;19465;49.016;11.414;2024-03-25T14:01:25;2.30;;;1.10;;
33098;SDS011;19465;49.016;11.414;2024-03-25T14:03:50;2.17;;;1.25;;
33098;SDS011;19465;49.016;11.414;2024-03-25T14:06:16;2.85;;;1.50;;
33098;SDS011;19465;49.016;11.414;2024-03-25T14:08:41;2.88;;;1.38;;
33098;SDS011;19465;49.016;11.414;2024-03-25T14:11:08;2.45;;;1.45;;
33098;SDS011;19465;49.016;11.414;2024-03-25T14:13:34;3.58;;;1.50;;
33098;SDS011;19465;49.016;11.414;2024-03-25T14:16:00;2.40;;;1.50;;
33098;SDS011;19465;49.016;11.414;2024-03-25T14:18:26;5.40;;;1.80;;
33098;SDS011;19465;49.016;11.414;2024-03-25T14:20:52;3.17;;;1.50;;
33098;SDS011;19465;49.016;11.414;2024-03-25T14:23:18;5.22;;;1.70;;
33098;SDS011;19465;49.016;11.414;2024-03-25T14:25:43;4.07;;;1.65;;
33098;SDS011;19465;49.016;11.414;2024-03-25T14:28:09;3.10;;;1.65;;
33098;SDS011;19465;49.016;11.414;2024-03-25T14:30:35;4.35;;;1.67;;
33098;SDS011;19465;49.016;11.414;2024-03-25T14:33:00;2.30;;;1.45;;
33098;SDS011;19465;49.016;11.414;2024-03-25T14:35:26;3.63;;;1.70;;